»·PEaware :: N51254 KVNY-KSNA

N51254 :: KVNY-KSNA

FLIGHT INFORMATION

Flight Status: Arrived
Operator: Privately registered:
United States
More flights under this callsign
Pilot: Hasan B. (9605)
Aircraft: CESSNA 172 SKYHAWK
(C172)
More flights by this aircraft type
Origin: KVNY Van Nuys
United States
Destination: KSNA John Wayne-Orange Co
United States
More flights between these airports :: More routes between these airports
Route: +
File this flight plan on PilotEdge
Remarks: FF
Altitude:
(Current/Filed)
5,500ft
Speed:
(Current/Filed)
0kts
Departed: 09-Oct-18 09:49 AM
Arrived: 09-Oct-18 11:08 AM
Distance/Time
Traveled:
26nm/1:19
Distance/Time
To Go:
Arrived

Flight Plot

Page will automatically refresh every two minutes.


Map Options




Map Legend


Flown Route
Filed Route
Departure Airport
Arrival Airport
Navaid (VOR, NDB)
Fix

Horizontal Profiles

Position Reports

Time Latitude Longitude Heading Altitude Ground
Speed
09-Oct-18 09:44 34.219336 -118.494312 175 806ft 0kts
09-Oct-18 09:45 34.219336 -118.494312 175 806ft 0kts
09-Oct-18 09:46 34.219336 -118.494312 175 806ft 0kts
09-Oct-18 09:47 34.218865 -118.493778 94 806ft 10kts
09-Oct-18 09:48 34.218698 -118.492332 97 806ft 8kts
09-Oct-18 09:49 34.218704 -118.492237 79 806ft 0kts
09-Oct-18 09:50 34.218709 -118.492206 80 806ft 0kts
09-Oct-18 09:51 34.216218 -118.490974 175 806ft 59kts
09-Oct-18 09:52 34.205849 -118.490215 176 1047ft 87kts
09-Oct-18 09:53 34.199263 -118.492907 234 1324ft 85kts
09-Oct-18 09:54 34.195587 -118.500976 232 1614ft 82kts
09-Oct-18 09:55 34.191416 -118.509053 238 1894ft 82kts
09-Oct-18 09:56 34.187176 -118.516988 234 2143ft 85kts
09-Oct-18 09:57 34.182079 -118.524972 230 2428ft 85kts
09-Oct-18 09:58 34.176828 -118.533048 231 2494ft 96kts
09-Oct-18 09:59 34.168920 -118.537782 176 2490ft 100kts
09-Oct-18 10:00 34.160468 -118.533848 155 2507ft 97kts
09-Oct-18 10:01 34.152253 -118.529085 155 2471ft 100kts
09-Oct-18 10:02 34.141907 -118.524167 162 2465ft 100kts
09-Oct-18 10:03 34.134666 -118.521571 164 2486ft 97kts
09-Oct-18 10:04 34.125801 -118.519029 168 2471ft 98kts
09-Oct-18 10:05 34.116190 -118.517392 175 2466ft 98kts
09-Oct-18 10:06 34.109524 -118.522639 280 2486ft 94kts
09-Oct-18 10:07 34.113058 -118.532271 297 2562ft 93kts
09-Oct-18 10:08 34.117157 -118.541547 298 2799ft 94kts
09-Oct-18 10:09 34.121539 -118.550826 305 3018ft 96kts
09-Oct-18 10:10 34.127544 -118.557762 324 3214ft 97kts
09-Oct-18 10:11 34.138842 -118.566460 332 3520ft 99kts
09-Oct-18 10:12 34.154272 -118.574531 344 3850ft 100kts
09-Oct-18 10:13 34.170640 -118.577007 359 4174ft 101kts
09-Oct-18 10:14 34.187599 -118.575197 7 4534ft 100kts
09-Oct-18 10:15 34.203811 -118.571293 12 4949ft 97kts
09-Oct-18 10:16 34.219905 -118.566373 13 5316ft 96kts
09-Oct-18 10:17 34.234767 -118.566616 313 5554ft 92kts
09-Oct-18 10:18 34.231940 -118.578571 174 5594ft 97kts
09-Oct-18 10:19 34.224000 -118.574550 156 5507ft 105kts
09-Oct-18 10:20 34.215935 -118.570279 158 5499ft 102kts
09-Oct-18 10:21 34.207736 -118.566575 159 5475ft 102kts
09-Oct-18 10:22 34.198429 -118.561901 155 5510ft 96kts
09-Oct-18 10:23 34.182682 -118.553366 153 5486ft 97kts
09-Oct-18 10:24 34.167110 -118.544865 156 5549ft 94kts
09-Oct-18 10:25 34.151036 -118.536751 161 5579ft 95kts
09-Oct-18 10:26 34.134112 -118.528834 157 5605ft 97kts
09-Oct-18 10:27 34.117102 -118.520907 160 5627ft 97kts
09-Oct-18 10:28 34.101290 -118.513820 159 5623ft 99kts
09-Oct-18 10:29 34.085120 -118.505613 151 5591ft 101kts
09-Oct-18 10:30 34.066527 -118.495083 157 5597ft 101kts
09-Oct-18 10:31 34.052242 -118.488602 161 5587ft 101kts
09-Oct-18 10:32 34.034505 -118.480843 156 5561ft 102kts
09-Oct-18 10:33 34.017706 -118.471305 155 5597ft 100kts
09-Oct-18 10:34 34.000539 -118.463162 161 5539ft 103kts
09-Oct-18 10:35 33.984054 -118.456207 158 5548ft 102kts
09-Oct-18 10:36 33.968403 -118.447583 156 5557ft 101kts
09-Oct-18 10:37 33.951203 -118.440817 164 5542ft 102kts
09-Oct-18 10:38 33.933726 -118.433689 143 5591ft 99kts
09-Oct-18 10:39 33.922028 -118.419938 135 5536ft 102kts
09-Oct-18 10:40 33.909610 -118.406111 137 5516ft 102kts
09-Oct-18 10:41 33.897202 -118.393002 140 5498ft 102kts
09-Oct-18 10:42 33.884992 -118.381858 146 5490ft 103kts
09-Oct-18 10:43 33.857386 -118.356983 128 5535ft 100kts
09-Oct-18 10:44 33.839074 -118.331599 129 5493ft 102kts
09-Oct-18 10:45 33.822303 -118.311992 144 5569ft 99kts
09-Oct-18 10:46 33.807683 -118.300061 134 5588ft 99kts
09-Oct-18 10:47 33.794706 -118.284183 137 5572ft 101kts
09-Oct-18 10:48 33.772027 -118.258136 141 5556ft 102kts
09-Oct-18 10:49 33.747293 -118.231734 132 5560ft 101kts
09-Oct-18 10:50 33.732547 -118.210550 137 5531ft 103kts
09-Oct-18 10:51 33.718261 -118.196370 105 5508ft 96kts
09-Oct-18 10:52 33.716473 -118.180397 97 5131ft 103kts
09-Oct-18 10:53 33.715176 -118.158896 92 4733ft 101kts
09-Oct-18 10:54 33.714656 -118.142941 92 4438ft 100kts
09-Oct-18 10:55 33.712641 -118.113185 97 3903ft 97kts
09-Oct-18 10:56 33.711927 -118.075496 78 3228ft 95kts
09-Oct-18 10:57 33.718102 -118.040384 78 2643ft 94kts
09-Oct-18 10:58 33.722041 -118.016305 81 2420ft 90kts
09-Oct-18 10:59 33.722324 -117.999964 88 2298ft 90kts
09-Oct-18 11:00 33.721937 -117.983251 96 2194ft 88kts
09-Oct-18 11:01 33.721659 -117.967691 88 2089ft 88kts
09-Oct-18 11:02 33.723659 -117.949678 82 2086ft 93kts
09-Oct-18 11:03 33.720706 -117.932346 102 1849ft 97kts
09-Oct-18 11:04 33.717912 -117.915576 101 1518ft 99kts
09-Oct-18 11:05 33.714669 -117.898183 104 1226ft 94kts
09-Oct-18 11:06 33.710970 -117.880897 103 992ft 95kts
09-Oct-18 11:07 33.706265 -117.866405 120 891ft 75kts
09-Oct-18 11:08 33.697116 -117.859058 180 691ft 66kts
09-Oct-18 11:09 33.687050 -117.861533 206 295ft 66kts
09-Oct-18 11:10 33.678944 -117.866828 199 60ft 19kts
09-Oct-18 11:11 33.678074 -117.868343 288 60ft 0kts
09-Oct-18 11:12 33.678078 -117.868728 237 60ft 8kts
09-Oct-18 11:13 33.675921 -117.870807 212 60ft 2kts
09-Oct-18 11:14 33.675913 -117.870815 212 60ft 0kts
09-Oct-18 11:15 33.675913 -117.870815 212 60ft 0kts
09-Oct-18 11:16 33.675913 -117.870815 212 60ft 0kts
09-Oct-18 11:17 33.675913 -117.870815 212 60ft 0kts
09-Oct-18 11:18 33.675913 -117.870815 212 60ft 0kts
09-Oct-18 11:19 33.675913 -117.870815 212 60ft 0kts
09-Oct-18 11:20 33.675913 -117.870815 212 60ft 0kts
09-Oct-18 11:21 33.796502 -118.332401 0 107ft 0kts
09-Oct-18 11:22 33.796503 -118.332401 0 107ft 0kts
09-Oct-18 11:23 33.796503 -118.332401 0 107ft 0kts
09-Oct-18 11:24 33.796503 -118.332401 0 107ft 0kts
09-Oct-18 11:25 33.796503 -118.332401 0 107ft 0kts

Navigation Log

Ident Type
1. KVNY Airport
2. KSNA Airport